UNNT 251700Z 29002MPS 5000 -SN BKN033 M16/M18 Q1032 R25/490140 R16/////// NOSIG RMK QFE764/1019
QNH:(hPa/inHg/mmHg)1032 / 30.47 / 774
QFE:(hPa/inHg/mmHg)1018 / 30.07 / 764
Temperature-16
Dew Point-18
Visibility5000
WeatherLight Snow
Cloud CoverBKN (3300);
Transition Altitude6000 ft.
Transition LevelFL70
SQUAWK